Bonnard, Canada
Current Conditions -  °F | °C
As of 1:00 PM on Monday 26 Jan 2015 (Local Time) from CYRJ Reporting Station
Broken Clouds Broken Clouds  
Wind Chill: -16°   Ceiling: 22000
Heat Index: -4°   Visibility: 25mi
Dew Point: -17°   Wind: 6mph
Humidity: 55%   Direction: 110°ESE
Pressure: 30.22"   Gusts: NA
Location:  50.73°N, 71.02°W
Report Text: CYRJ 261800Z 11005KT 050V130 25SM FEW025 BKN220 M20/M27 A3022 RMK SC1CS7 SC TR SLP257
Loading
Personal Weather Stations






























Interactive Weather Map New forecast layout! Learn more

10-Day Weather Forecast

Advertisements
Track Severe Weather on mobile